createdAt,value
2022-08-14T00:00:40.528Z,100431.78
2022-08-14T00:04:01.543Z,100435.72
2022-08-14T00:07:42.552Z,100427.31
2022-08-14T00:11:07.523Z,100431.34
2022-08-14T00:14:28.530Z,100434.00
2022-08-14T00:17:53.368Z,100432.63
2022-08-14T00:21:14.576Z,100432.63
2022-08-14T00:24:37.728Z,100439.16
2022-08-14T00:27:58.530Z,100431.44
2022-08-14T00:31:35.387Z,100429.28
2022-08-14T00:35:03.528Z,100433.97
2022-08-14T00:38:24.606Z,100426.34
2022-08-14T00:41:48.536Z,100429.91
2022-08-14T00:45:09.598Z,100421.38
2022-08-14T00:48:34.510Z,100423.69
2022-08-14T00:51:58.099Z,100418.94
2022-08-14T00:55:21.613Z,100424.22
2022-08-14T00:58:45.100Z,100425.72
2022-08-14T01:02:14.523Z,100423.16
2022-08-14T01:05:41.808Z,100416.72
2022-08-14T01:09:14.538Z,100423.84
2022-08-14T01:12:40.711Z,100431.63
2022-08-14T01:16:06.536Z,100434.50
2022-08-14T01:19:47.999Z,100429.84
2022-08-14T01:23:16.326Z,100434.44
2022-08-14T01:26:40.603Z,100431.63
2022-08-14T01:30:10.571Z,100441.50
2022-08-14T01:34:00.432Z,100432.91
2022-08-14T01:37:19.597Z,100433.59
2022-08-14T01:40:41.917Z,100437.44
2022-08-14T01:44:32.826Z,100435.78
2022-08-14T01:47:50.557Z,100430.69
2022-08-14T01:51:19.541Z,100441.06
2022-08-14T01:54:41.642Z,100439.88
2022-08-14T01:58:20.275Z,100444.34
2022-08-14T02:01:51.542Z,100444.56
2022-08-14T02:05:20.584Z,100448.44
2022-08-14T02:08:53.300Z,100451.28
2022-08-14T02:12:19.576Z,100444.00
2022-08-14T02:15:43.584Z,100453.56
2022-08-14T02:19:05.578Z,100455.81
2022-08-14T02:22:28.631Z,100455.00
2022-08-14T02:25:54.719Z,100451.97
2022-08-14T02:29:59.191Z,100454.63
2022-08-14T02:33:18.553Z,100461.38
2022-08-14T02:37:04.591Z,100453.50
2022-08-14T02:40:31.911Z,100455.41
2022-08-14T02:43:54.659Z,100455.44
2022-08-14T02:47:21.584Z,100460.00
2022-08-14T02:50:44.619Z,100464.81
2022-08-14T02:54:13.272Z,100469.75
2022-08-14T02:57:42.568Z,100468.03
2022-08-14T03:01:03.616Z,100475.75
2022-08-14T03:04:28.582Z,100468.28
2022-08-14T03:07:49.666Z,100469.88
2022-08-14T03:11:18.576Z,100476.34
2022-08-14T03:14:43.629Z,100479.09
2022-08-14T03:18:05.585Z,100480.50
2022-08-14T03:21:24.619Z,100483.75
2022-08-14T03:24:46.585Z,100480.44
2022-08-14T03:28:33.312Z,100473.22
2022-08-14T03:31:58.578Z,100476.25
2022-08-14T03:35:20.677Z,100479.09
2022-08-14T03:39:11.617Z,100478.50
2022-08-14T03:42:35.766Z,100475.31
2022-08-14T03:45:57.573Z,100475.56
2022-08-14T03:49:24.361Z,100471.09
2022-08-14T03:52:55.606Z,100471.84
2022-08-14T03:56:21.364Z,100473.94
2022-08-14T03:59:42.594Z,100469.66
2022-08-14T04:03:03.607Z,100467.13
2022-08-14T04:06:28.348Z,100476.31
2022-08-14T04:09:52.806Z,100468.38
2022-08-14T04:13:17.600Z,100472.41
2022-08-14T04:16:38.624Z,100482.44
2022-08-14T04:20:00.689Z,100480.16
2022-08-14T04:23:29.419Z,100474.97
2022-08-14T04:26:55.691Z,100478.78
2022-08-14T04:30:25.028Z,100475.69
2022-08-14T04:33:54.607Z,100476.03
2022-08-14T04:37:34.601Z,100471.66
2022-08-14T04:41:14.658Z,100482.84
2022-08-14T04:44:37.231Z,100475.75
2022-08-14T04:48:39.879Z,100474.72
2022-08-14T04:51:59.625Z,100477.63
2022-08-14T04:55:16.826Z,100471.59
2022-08-14T04:58:34.610Z,100478.41
2022-08-14T05:01:57.382Z,100471.16
2022-08-14T05:05:18.655Z,100469.84
2022-08-14T05:08:56.888Z,100473.56
2022-08-14T05:13:24.526Z,100471.25
2022-08-14T05:16:01.696Z,100463.94
2022-08-14T05:19:27.296Z,100467.06
2022-08-14T05:22:55.612Z,100469.69
2022-08-14T05:26:21.667Z,100462.44
2022-08-14T05:29:42.707Z,100459.66
2022-08-14T05:33:03.683Z,100459.19
2022-08-14T05:36:27.035Z,100458.97
2022-08-14T05:39:48.752Z,100456.19
2022-08-14T05:43:11.666Z,100463.03
2022-08-14T05:46:34.634Z,100465.56
2022-08-14T05:49:58.624Z,100464.50
2022-08-14T05:53:19.638Z,100461.00
2022-08-14T05:56:42.635Z,100455.25
2022-08-14T06:00:04.670Z,100460.50
2022-08-14T06:03:28.708Z,100457.69
2022-08-14T06:06:49.645Z,100455.94
2022-08-14T06:10:10.685Z,100457.13
2022-08-14T06:13:44.410Z,100455.97
2022-08-14T06:17:06.624Z,100458.06
2022-08-14T06:20:28.750Z,100453.00
2022-08-14T06:23:50.642Z,100450.78
2022-08-14T06:27:12.612Z,100448.97
2022-08-14T06:30:46.170Z,100454.00
2022-08-14T06:35:03.350Z,100446.41
2022-08-14T06:37:59.630Z,100449.16
2022-08-14T06:41:52.666Z,100446.88
2022-08-14T06:45:07.667Z,100449.16
2022-08-14T06:48:33.652Z,100450.00
2022-08-14T06:51:56.637Z,100447.84
2022-08-14T06:55:28.220Z,100448.97
2022-08-14T06:58:50.640Z,100449.06
2022-08-14T07:02:29.693Z,100448.66
2022-08-14T07:05:58.665Z,100445.03
2022-08-14T07:09:22.566Z,100448.94
2022-08-14T07:13:00.761Z,100445.78
2022-08-14T07:16:22.680Z,100439.03
2022-08-14T07:19:48.652Z,100444.13
2022-08-14T07:23:09.292Z,100439.91
2022-08-14T07:26:31.651Z,100437.59
2022-08-14T07:29:52.644Z,100442.50
2022-08-14T07:33:13.636Z,100442.06
2022-08-14T07:36:35.674Z,100438.75
2022-08-14T07:39:56.710Z,100440.41
2022-08-14T07:43:18.653Z,100441.31
2022-08-14T07:46:41.637Z,100439.22
2022-08-14T07:50:34.715Z,100443.31
2022-08-14T07:54:03.496Z,100440.97
2022-08-14T07:57:35.704Z,100435.69
2022-08-14T08:00:57.908Z,100444.25
2022-08-14T08:04:24.565Z,100443.72
2022-08-14T08:07:45.688Z,100435.75
2022-08-14T08:11:14.696Z,100440.59
2022-08-14T08:14:56.317Z,100437.72
2022-08-14T08:18:29.251Z,100449.00
2022-08-14T08:21:53.755Z,100443.97
2022-08-14T08:25:17.798Z,100444.22
2022-08-14T08:28:41.522Z,100442.91
2022-08-14T08:32:05.969Z,100440.75
2022-08-14T08:35:46.249Z,100438.09
2022-08-14T08:39:16.919Z,100436.25
2022-08-14T08:42:44.888Z,100429.03
2022-08-14T08:46:08.664Z,100427.41
2022-08-14T08:49:59.621Z,100428.47
2022-08-14T08:53:16.679Z,100424.44
2022-08-14T08:56:56.079Z,100420.91
2022-08-14T09:00:26.703Z,100419.75
2022-08-14T09:03:47.766Z,100419.69
2022-08-14T09:07:11.292Z,100409.53
2022-08-14T09:10:31.689Z,100416.44
2022-08-14T09:13:53.697Z,100417.44
2022-08-14T09:17:14.666Z,100410.34
2022-08-14T09:20:36.941Z,100415.13
2022-08-14T09:24:26.935Z,100415.19
2022-08-14T09:27:42.716Z,100408.19
2022-08-14T09:31:17.834Z,100406.72
2022-08-14T09:34:59.741Z,100411.00
2022-08-14T09:39:22.829Z,100403.09
2022-08-14T09:43:22.501Z,100403.38
2022-08-14T09:46:43.672Z,100401.31
2022-08-14T09:50:10.678Z,100395.94
2022-08-14T09:54:19.355Z,100400.16
2022-08-14T09:57:41.691Z,100403.63
2022-08-14T10:01:06.697Z,100397.56
2022-08-14T10:04:46.202Z,100398.75
2022-08-14T10:08:14.974Z,100398.47
2022-08-14T10:12:18.867Z,100391.72
2022-08-14T10:16:01.950Z,100397.56
2022-08-14T10:25:18.395Z,100399.63
2022-08-14T10:28:39.506Z,100398.22
2022-08-14T10:32:17.593Z,100407.97
2022-08-14T10:35:57.777Z,100396.00
2022-08-14T10:39:32.864Z,100393.75
2022-08-14T10:42:56.324Z,100389.63
2022-08-14T10:47:39.808Z,100386.91
2022-08-14T10:50:15.017Z,100398.03
2022-08-14T10:53:42.764Z,100391.75
2022-08-14T10:57:03.840Z,100387.75
2022-08-14T11:00:35.479Z,100388.31
2022-08-14T11:03:57.836Z,100386.06
2022-08-14T11:07:28.773Z,100388.72
2022-08-14T11:10:55.791Z,100386.75
2022-08-14T11:14:22.819Z,100390.13
2022-08-14T11:17:47.787Z,100383.97
2022-08-14T11:21:09.676Z,100388.75
2022-08-14T11:24:55.357Z,100380.97
2022-08-14T11:28:19.816Z,100390.25
2022-08-14T11:32:01.752Z,100378.19
2022-08-14T11:35:44.089Z,100383.13
2022-08-14T11:39:10.713Z,100370.78
2022-08-14T11:42:56.922Z,100378.75
2022-08-14T11:46:30.727Z,100386.41
2022-08-14T11:50:02.733Z,100381.09
2022-08-14T11:53:41.898Z,100375.25
2022-08-14T11:57:02.717Z,100373.88
2022-08-14T12:00:31.623Z,100365.88
2022-08-14T12:03:57.204Z,100363.34
2022-08-14T12:07:20.693Z,100363.78
2022-08-14T12:10:42.881Z,100366.56
2022-08-14T12:14:03.749Z,100356.66
2022-08-14T12:17:26.725Z,100359.13
2022-08-14T12:20:52.695Z,100349.25
2022-08-14T12:24:35.875Z,100352.56
2022-08-14T12:27:59.279Z,100348.34
2022-08-14T12:31:36.324Z,100344.84
2022-08-14T12:35:07.737Z,100350.84
2022-08-14T12:38:31.744Z,100345.66
2022-08-14T12:41:53.818Z,100335.81
2022-08-14T12:45:21.716Z,100341.66
2022-08-14T12:48:43.736Z,100343.31
2022-08-14T12:52:17.225Z,100338.78
2022-08-14T12:56:17.894Z,100339.31
2022-08-14T12:59:16.733Z,100330.13
2022-08-14T13:02:38.821Z,100337.72
2022-08-14T13:06:03.776Z,100326.25
2022-08-14T13:09:26.765Z,100337.16
2022-08-14T13:13:12.038Z,100338.03
2022-08-14T13:16:38.031Z,100337.69
2022-08-14T13:20:00.768Z,100340.03
2022-08-14T13:23:32.272Z,100340.69
2022-08-14T13:27:03.760Z,100334.69
2022-08-14T13:30:26.761Z,100334.69
2022-08-14T13:33:48.760Z,100333.00
2022-08-14T13:37:14.738Z,100333.09
2022-08-14T13:40:38.739Z,100332.28
2022-08-14T13:44:03.787Z,100328.31
2022-08-14T13:47:26.774Z,100322.75
2022-08-14T13:50:49.744Z,100323.06
2022-08-14T13:54:11.527Z,100318.09
2022-08-14T13:57:33.850Z,100318.41
2022-08-14T14:00:55.603Z,100320.53
2022-08-14T14:04:18.855Z,100313.03
2022-08-14T14:07:43.423Z,100312.09
2022-08-14T14:11:05.775Z,100310.88
2022-08-14T14:14:44.753Z,100298.78
2022-08-14T14:18:34.096Z,100304.97
2022-08-14T14:21:59.457Z,100305.16
2022-08-14T14:29:33.527Z,100299.50
2022-08-14T14:33:46.391Z,100291.19
2022-08-14T14:37:11.884Z,100285.72
2022-08-14T14:40:52.393Z,100282.75
2022-08-14T14:44:24.394Z,100290.06
2022-08-14T14:53:39.128Z,100294.97
2022-08-14T14:57:16.752Z,100295.91
2022-08-14T15:00:42.058Z,100290.53
2022-08-14T15:04:20.270Z,100288.47
2022-08-14T15:08:02.925Z,100284.13
2022-08-14T16:00:37.916Z,100289.97
2022-08-14T16:03:57.998Z,100288.50
2022-08-14T16:07:28.198Z,100282.16
2022-08-14T16:10:54.964Z,100278.16
2022-08-14T16:14:21.207Z,100291.81
2022-08-14T16:18:10.168Z,100289.19
2022-08-14T16:22:57.673Z,100294.88
2022-08-14T16:27:05.228Z,100281.84
2022-08-14T16:30:36.103Z,100281.63
2022-08-14T16:34:43.997Z,100284.59
2022-08-14T16:57:43.080Z,100302.88
2022-08-14T17:01:22.438Z,100293.25
2022-08-14T17:04:46.061Z,100295.94
2022-08-14T17:08:32.131Z,100301.81
2022-08-14T17:12:07.645Z,100299.13
2022-08-14T17:15:29.086Z,100298.84
2022-08-14T17:19:00.646Z,100305.00
2022-08-14T17:22:26.911Z,100313.28
2022-08-14T17:25:50.897Z,100318.34
2022-08-14T17:29:44.602Z,100323.38
2022-08-14T17:33:27.231Z,100328.47
2022-08-14T17:36:51.030Z,100321.50
2022-08-14T17:40:24.103Z,100331.09
2022-08-14T17:43:41.344Z,100334.22
2022-08-14T17:47:09.052Z,100324.50
2022-08-14T17:50:55.109Z,100331.91
2022-08-14T17:54:14.009Z,100336.94
2022-08-14T17:57:46.577Z,100339.34
2022-08-14T18:01:12.111Z,100329.44
2022-08-14T18:04:33.041Z,100327.59
2022-08-14T18:08:33.167Z,100321.44
2022-08-14T18:11:46.318Z,100335.81
2022-08-14T18:15:12.263Z,100331.25
2022-08-14T18:18:38.033Z,100338.97
2022-08-14T18:22:03.948Z,100334.13
2022-08-14T18:25:25.019Z,100329.06
2022-08-14T18:28:51.484Z,100335.38
2022-08-14T18:32:14.018Z,100329.69
2022-08-14T18:35:59.749Z,100332.34
2022-08-14T18:40:01.295Z,100330.69
2022-08-14T18:43:24.040Z,100330.84
2022-08-14T18:47:25.549Z,100323.06
2022-08-14T18:50:47.036Z,100330.25
2022-08-14T18:54:14.018Z,100329.13
2022-08-14T18:57:40.608Z,100343.19
2022-08-14T19:01:04.512Z,100335.72
2022-08-14T19:04:51.039Z,100342.06
2022-08-14T19:08:39.050Z,100343.31
2022-08-14T19:12:01.093Z,100343.69
2022-08-14T19:15:25.705Z,100341.56
2022-08-14T19:18:48.079Z,100350.66
2022-08-14T19:22:12.662Z,100343.31
2022-08-14T19:26:02.046Z,100343.38
2022-08-14T19:29:47.854Z,100344.31
2022-08-14T19:33:13.024Z,100351.53
2022-08-14T19:37:04.494Z,100354.03
2022-08-14T19:40:20.398Z,100363.00
2022-08-14T19:43:56.454Z,100358.91
2022-08-14T19:47:18.079Z,100357.78
2022-08-14T19:50:44.383Z,100360.91
2022-08-14T19:54:15.190Z,100354.47
2022-08-14T19:57:57.866Z,100364.28
2022-08-14T20:01:20.215Z,100357.28
2022-08-14T20:04:55.697Z,100361.22
2022-08-14T20:11:01.057Z,100354.56
2022-08-14T20:12:04.635Z,100358.75
2022-08-14T20:15:27.070Z,100362.91
2022-08-14T20:19:08.058Z,100376.06
2022-08-14T20:22:36.274Z,100372.88
2022-08-14T20:26:01.048Z,100369.66
2022-08-14T20:29:15.183Z,100372.06
2022-08-14T20:32:36.072Z,100377.38
2022-08-14T20:36:00.060Z,100369.41
2022-08-14T20:39:23.081Z,100370.44
2022-08-14T20:43:06.072Z,100366.19
2022-08-14T20:46:31.384Z,100368.50
2022-08-14T20:49:52.064Z,100372.69
2022-08-14T20:53:15.130Z,100367.84
2022-08-14T20:56:36.104Z,100371.22
2022-08-14T21:00:02.106Z,100370.09
2022-08-14T21:03:57.154Z,100379.31
2022-08-14T21:07:36.201Z,100376.84
2022-08-14T21:11:00.083Z,100378.59
2022-08-14T21:14:28.301Z,100373.09
2022-08-14T21:17:43.454Z,100373.94
2022-08-14T21:21:04.674Z,100380.84
2022-08-14T21:24:47.657Z,100385.63
2022-08-14T21:28:20.943Z,100381.69
2022-08-14T21:31:55.377Z,100391.63
2022-08-14T21:35:20.089Z,100390.97
2022-08-14T21:38:45.195Z,100381.75
2022-08-14T21:42:07.121Z,100378.31
2022-08-14T21:45:35.671Z,100383.94
2022-08-14T21:48:57.092Z,100380.34
2022-08-14T21:52:51.959Z,100384.13
2022-08-14T21:56:05.142Z,100382.88
2022-08-14T21:59:39.087Z,100384.84
2022-08-14T22:03:00.094Z,100382.50
2022-08-14T22:06:21.110Z,100386.88
2022-08-14T22:09:54.956Z,100381.00
2022-08-14T22:13:16.840Z,100385.59
2022-08-14T22:16:59.703Z,100385.59
2022-08-14T22:20:22.111Z,100391.03
2022-08-14T22:23:43.143Z,100383.91
2022-08-14T22:27:04.138Z,100395.28
2022-08-14T22:30:30.143Z,100392.19
2022-08-14T22:33:52.116Z,100399.09
2022-08-14T22:37:19.128Z,100402.22
2022-08-14T22:41:14.884Z,100391.63
2022-08-14T22:44:29.222Z,100398.28
2022-08-14T22:47:50.120Z,100395.22
2022-08-14T22:51:17.839Z,100391.31
2022-08-14T22:54:52.041Z,100393.38
2022-08-14T22:58:17.165Z,100388.75
2022-08-14T23:01:56.468Z,100394.84
2022-08-14T23:05:38.987Z,100393.34
2022-08-14T23:09:34.571Z,100395.66
2022-08-14T23:12:43.143Z,100393.75
2022-08-14T23:16:04.150Z,100390.78
2022-08-14T23:19:25.175Z,100390.66
2022-08-14T23:22:56.138Z,100384.31
2022-08-14T23:26:48.071Z,100396.31
2022-08-14T23:29:58.129Z,100391.25
2022-08-14T23:33:19.118Z,100394.91
2022-08-14T23:36:53.053Z,100388.47
2022-08-14T23:40:26.478Z,100392.94
2022-08-14T23:43:50.160Z,100394.59
2022-08-14T23:47:25.667Z,100391.84
2022-08-14T23:50:50.132Z,100399.22
2022-08-14T23:54:48.646Z,100392.16
2022-08-14T23:57:58.539Z,100390.44
